Time;durP1;ratioP1;P1;durP2;ratioP2;P2;SDS_P1;SDS_P2;PMS_P1;PMS_P2;Temp;Humidity;BMP_temperature;BMP_pressure;BME280_temperature;BME280_humidity;BME280_pressure;Samples;Min_cycle;Max_cycle;Signal;HPM_P1;HPM_P2
2022/12/16 00:02:18;;;;;;;;;;;;;;;10.32;60.05;98819.88;5052832;28;20003;-81
2022/12/16 00:04:43;;;;;;;;;;;;;;;10.32;60.00;98820.72;5045082;28;19924;-79
2022/12/16 00:07:08;;;;;;;;;;;;;;;10.35;60.11;98821.47;5051280;28;19917;-88
2022/12/16 00:09:34;;;;;;;;;;;;;;;10.36;60.04;98823.97;5026252;28;20353;-89
2022/12/16 00:11:59;;;;;;;;;;;;;;;10.38;60.06;98818.63;5039356;28;20066;-86
2022/12/16 00:14:26;;;;;;;;;;;;;;;10.40;60.10;98819.34;5056836;28;19939;-87
2022/12/16 00:16:51;;;;;;;;;;;;;;;10.42;60.06;98826.13;5039669;28;19944;-87
2022/12/16 00:19:16;;;;;;;;;;;;;;;10.43;60.03;98825.16;5040444;28;20327;-87
2022/12/16 00:21:42;;;;;;;;;;;;;;;10.46;60.22;98824.13;5039300;28;20354;-87
2022/12/16 00:24:07;;;;;;;;;;;;;;;10.46;60.06;98830.16;5038014;28;19916;-87
2022/12/16 00:26:32;;;;;;;;;;;;;;;10.47;60.16;98834.44;5037950;28;19917;-86
2022/12/16 00:28:58;;;;;;;;;;;;;;;10.49;60.01;98836.94;5037841;28;20008;-88
2022/12/16 00:31:23;;;;;;;;;;;;;;;10.52;60.06;98841.94;5021700;28;20349;-91
2022/12/16 00:33:48;;;;;;;;;;;;;;;10.54;59.85;98850.47;5038010;28;19916;-90
2022/12/16 00:36:13;;;;;;;;;;;;;;;10.56;59.74;98848.56;5055850;28;19928;-90
2022/12/16 00:38:39;;;;;;;;;;;;;;;10.58;60.18;98851.06;5021374;28;19917;-91
2022/12/16 00:41:04;;;;;;;;;;;;;;;10.59;60.13;98850.13;5037546;28;19921;-91
2022/12/16 00:43:29;;;;;;;;;;;;;;;10.60;60.06;98836.97;5038284;28;19955;-93
2022/12/16 00:45:55;;;;;;;;;;;;;;;10.63;60.10;98828.09;5037713;28;19917;-86
2022/12/16 00:48:24;;;;;;;;;;;;;;;10.64;60.15;98829.72;5055190;28;19917;-88
2022/12/16 00:50:49;;;;;;;;;;;;;;;10.65;60.22;98836.63;5038275;28;19916;-88
2022/12/16 00:53:15;;;;;;;;;;;;;;;10.66;60.14;98833.91;5020664;28;19917;-88
2022/12/16 00:55:41;;;;;;;;;;;;;;;10.68;60.14;98836.41;5020391;28;19923;-90
2022/12/16 00:58:06;;;;;;;;;;;;;;;10.71;60.04;98846.59;5037442;28;20019;-92
2022/12/16 01:00:31;;;;;;;;;;;;;;;10.73;60.46;98846.50;5020626;28;19927;-90
2022/12/16 01:02:56;;;;;;;;;;;;;;;10.72;60.37;98840.44;5039304;28;19964;-93
2022/12/16 01:05:25;;;;;;;;;;;;;;;10.74;60.29;98832.50;5055242;28;19923;-90
2022/12/16 01:07:50;;;;;;;;;;;;;;;10.75;60.32;98831.53;5038511;28;19917;-93
2022/12/16 01:10:16;;;;;;;;;;;;;;;10.76;60.41;98820.97;5056085;28;20260;-94
2022/12/16 01:12:41;;;;;;;;;;;;;;;10.77;60.40;98819.19;5038107;28;19947;-93
2022/12/16 01:15:07;;;;;;;;;;;;;;;10.79;60.21;98812.09;5021947;28;19975;-94
2022/12/16 01:17:32;;;;;;;;;;;;;;;10.79;60.50;98807.69;5026830;28;19917;-95
2022/12/16 01:19:58;;;;;;;;;;;;;;;10.81;60.64;98808.41;5038619;28;19917;-94
2022/12/16 01:22:23;;;;;;;;;;;;;;;10.81;60.49;98811.00;5038469;28;19916;-93
2022/12/16 01:24:48;;;;;;;;;;;;;;;10.83;60.63;98816.13;5037856;28;19974;-93
2022/12/16 01:27:14;;;;;;;;;;;;;;;10.83;60.46;98808.28;5037503;28;19924;-93
2022/12/16 01:29:40;;;;;;;;;;;;;;;10.85;60.57;98803.78;5057031;28;19917;-96
2022/12/16 01:32:05;;;;;;;;;;;;;;;10.86;60.74;98808.03;5057165;28;20015;-91
2022/12/16 01:34:31;;;;;;;;;;;;;;;10.88;60.46;98813.16;5036699;28;20299;-81
2022/12/16 01:36:56;;;;;;;;;;;;;;;10.89;60.74;98814.81;5054330;28;19917;-80
2022/12/16 01:39:22;;;;;;;;;;;;;;;10.90;60.63;98822.53;5019152;28;19917;-83
2022/12/16 01:41:47;;;;;;;;;;;;;;;10.90;60.86;98826.94;5019711;28;19999;-83
2022/12/16 01:44:17;;;;;;;;;;;;;;;10.90;60.70;98830.38;5054145;28;19921;-83
2022/12/16 01:46:42;;;;;;;;;;;;;;;10.92;60.99;98830.25;5036135;28;19921;-83
2022/12/16 01:49:13;;;;;;;;;;;;;;;10.93;60.89;98845.81;5053888;28;20470;-85
2022/12/16 01:51:39;;;;;;;;;;;;;;;10.95;60.70;98848.31;5054175;28;19920;-84
2022/12/16 01:54:04;;;;;;;;;;;;;;;10.94;60.65;98838.81;5037284;28;19917;-83
2022/12/16 01:56:30;;;;;;;;;;;;;;;10.94;60.72;98837.03;5054066;28;19916;-83
2022/12/16 01:58:56;;;;;;;;;;;;;;;10.93;60.55;98835.38;5035713;28;19925;-85
2022/12/16 02:01:21;;;;;;;;;;;;;;;10.95;60.61;98832.63;5036257;28;19925;-82
2022/12/16 02:03:46;;;;;;;;;;;;;;;10.95;60.39;98832.63;5053523;28;20300;-83
2022/12/16 02:06:12;;;;;;;;;;;;;;;10.96;60.69;98829.06;5035419;28;20019;-80
2022/12/16 02:08:37;;;;;;;;;;;;;;;10.97;60.70;98828.13;5053473;28;19924;-80
2022/12/16 02:11:02;;;;;;;;;;;;;;;10.98;60.59;98824.56;5053541;28;19917;-79
2022/12/16 02:13:40;;;;;;;;;;;;;;;10.99;60.82;98821.00;5035717;28;19917;-80
2022/12/16 02:16:08;;;;;;;;;;;;;;;11.01;60.66;98825.16;5053702;28;19917;-80
2022/12/16 02:18:33;;;;;;;;;;;;;;;11.01;60.66;98834.78;5053554;28;19917;-80
2022/12/16 02:21:02;;;;;;;;;;;;;;;11.01;60.97;98829.56;5053548;28;19917;-80
2022/12/16 02:23:30;;;;;;;;;;;;;;;11.02;61.15;98815.53;5053326;28;20288;-82
2022/12/16 02:26:11;;;;;;;;;;;;;;;11.03;60.95;98825.88;5053178;28;19931;-81
2022/12/16 02:28:39;;;;;;;;;;;;;;;11.03;60.95;98820.66;5035059;28;20365;-81
2022/12/16 02:31:04;;;;;;;;;;;;;;;11.06;60.84;98813.53;5052838;28;19917;-80
2022/12/16 02:33:48;;;;;;;;;;;;;;;11.06;60.88;98808.31;5052958;28;20380;-79
2022/12/16 02:36:32;;;;;;;;;;;;;;;11.04;61.06;98808.44;5053567;28;19928;-80
2022/12/16 02:38:59;;;;;;;;;;;;;;;11.04;60.84;98798.81;5052797;28;20260;-80
2022/12/16 02:41:50;;;;;;;;;;;;;;;11.06;60.82;98783.00;5035391;28;19995;-80
2022/12/16 02:44:16;;;;;;;;;;;;;;;11.06;61.10;98769.94;4972026;28;19925;-80
2022/12/16 02:46:42;;;;;;;;;;;;;;;11.06;60.96;98772.56;4956049;28;19977;-80
2022/12/16 02:49:27;;;;;;;;;;;;;;;11.06;60.99;98776.97;4956388;28;19918;-80
2022/12/16 02:51:52;;;;;;;;;;;;;;;11.08;61.15;98772.44;4971841;28;19925;-80
2022/12/16 02:54:18;;;;;;;;;;;;;;;11.07;61.42;98755.09;4956095;28;19922;-84
2022/12/16 02:57:02;;;;;;;;;;;;;;;11.07;61.08;98763.78;4972047;28;19924;-85
2022/12/16 02:59:42;;;;;;;;;;;;;;;11.07;61.07;98766.41;4971504;28;19965;-86
2022/12/16 03:02:26;;;;;;;;;;;;;;;11.08;61.39;98765.44;4956246;28;19918;-80
2022/12/16 03:04:53;;;;;;;;;;;;;;;11.09;61.10;98774.94;4971682;28;20025;-80
2022/12/16 03:07:20;;;;;;;;;;;;;;;11.10;61.32;98781.00;4955398;28;19973;-80
2022/12/16 03:09:46;;;;;;;;;;;;;;;11.11;61.21;98780.88;4972206;28;19969;-81
2022/12/16 03:12:13;;;;;;;;;;;;;;;11.12;61.36;98769.47;4955626;28;19969;-80
2022/12/16 03:14:39;;;;;;;;;;;;;;;11.12;61.15;98774.69;4940157;28;19918;-82
2022/12/16 03:17:04;;;;;;;;;;;;;;;11.15;61.19;98776.25;4955852;28;19969;-86
2022/12/16 03:19:30;;;;;;;;;;;;;;;11.15;61.35;98781.47;4939681;28;20380;-82
2022/12/16 03:21:59;;;;;;;;;;;;;;;11.16;61.06;98770.06;5041278;28;19917;-81
2022/12/16 03:24:24;;;;;;;;;;;;;;;11.16;61.48;98778.72;5042672;28;19939;-80
2022/12/16 03:27:09;;;;;;;;;;;;;;;11.17;61.19;98792.63;5051541;28;19917;-80
2022/12/16 03:29:41;;;;;;;;;;;;;;;11.18;61.49;98784.69;5053205;28;19924;-81
2022/12/16 03:32:11;;;;;;;;;;;;;;;11.18;61.17;98782.06;5053072;28;19964;-82
2022/12/16 03:34:43;;;;;;;;;;;;;;;11.19;61.11;98793.34;5018593;28;19924;-82
2022/12/16 03:37:08;;;;;;;;;;;;;;;11.20;61.07;98784.56;5034489;28;19916;-80
2022/12/16 03:39:35;;;;;;;;;;;;;;;11.20;61.10;98789.78;5052457;28;19928;-80
2022/12/16 03:42:00;;;;;;;;;;;;;;;11.21;61.20;98792.28;5036597;28;19948;-80
2022/12/16 03:44:26;;;;;;;;;;;;;;;11.22;61.39;98807.00;5038740;28;20418;-82
2022/12/16 03:46:52;;;;;;;;;;;;;;;11.22;61.19;98795.72;5038577;28;19924;-82
2022/12/16 03:49:17;;;;;;;;;;;;;;;11.22;61.50;98801.75;5056784;28;19917;-83
2022/12/16 03:51:42;;;;;;;;;;;;;;;11.22;61.65;98806.16;5056693;28;19917;-83
2022/12/16 03:54:07;;;;;;;;;;;;;;;11.23;61.43;98806.03;5038490;28;19924;-83
2022/12/16 03:56:33;;;;;;;;;;;;;;;11.22;61.34;98791.31;5038443;28;19916;-83
2022/12/16 03:58:59;;;;;;;;;;;;;;;11.25;61.50;98789.44;5038210;28;20344;-83
2022/12/16 04:01:24;;;;;;;;;;;;;;;11.25;61.28;98789.44;5038612;28;19917;-83
2022/12/16 04:03:49;;;;;;;;;;;;;;;11.24;61.35;98801.66;5038501;28;19916;-84
2022/12/16 04:06:17;;;;;;;;;;;;;;;11.25;61.59;98803.31;5038476;28;19917;-83
2022/12/16 04:08:43;;;;;;;;;;;;;;;11.26;61.50;98802.38;5056153;28;19924;-83
2022/12/16 04:24:52;;;;;;;;;;;;;;;11.32;61.78;98828.03;5040874;28;19928;-83
2022/12/16 04:27:23;;;;;;;;;;;;;;;11.34;61.66;98825.31;5021498;28;19917;-81
